createdAt,value
2016-09-27T03:00:44.335Z,0
2016-09-27T03:02:02.884Z,0
2016-09-27T03:02:28.445Z,0
2016-09-27T03:02:54.056Z,0
2016-09-27T03:03:19.605Z,0
2016-09-27T03:03:45.163Z,0
2016-09-27T03:04:10.867Z,0
2016-09-27T03:04:36.414Z,0
2016-09-27T03:05:01.985Z,0
2016-09-27T03:05:27.643Z,0
2016-09-27T03:05:53.216Z,0
2016-09-27T03:06:18.778Z,0
2016-09-27T03:06:44.344Z,0
2016-09-27T03:07:09.929Z,0
2016-09-27T03:07:35.495Z,0
2016-09-27T03:08:01.064Z,0
2016-09-27T03:08:26.625Z,0
2016-09-27T03:08:52.186Z,0
2016-09-27T03:10:05.665Z,0
2016-09-27T03:10:31.229Z,0
2016-09-27T03:10:56.792Z,0
2016-09-27T03:11:22.475Z,0
2016-09-27T03:11:48.095Z,0
2016-09-27T03:12:13.668Z,0
2016-09-27T03:12:39.258Z,0
2016-09-27T03:13:04.840Z,0
2016-09-27T03:14:13.380Z,0
2016-09-27T03:14:38.944Z,0
2016-09-27T03:15:04.514Z,0
2016-09-27T03:15:30.072Z,0
2016-09-27T03:15:55.627Z,0
2016-09-27T03:16:21.173Z,0
2016-09-27T03:16:46.732Z,0
2016-09-27T03:17:12.306Z,0
2016-09-27T03:17:37.876Z,0
2016-09-27T03:18:03.446Z,0
2016-09-27T03:18:29.005Z,0
2016-09-27T03:18:54.572Z,0
2016-09-27T03:19:20.215Z,0
2016-09-27T03:19:45.782Z,0
2016-09-27T03:20:11.350Z,0
2016-09-27T03:20:36.906Z,0
2016-09-27T03:21:02.464Z,0
2016-09-27T03:21:28.021Z,0
2016-09-27T03:21:53.594Z,0
2016-09-27T03:22:19.155Z,0
2016-09-27T03:22:44.875Z,0
2016-09-27T03:23:10.440Z,0
2016-09-27T03:23:35.987Z,0
2016-09-27T03:24:01.606Z,0
2016-09-27T03:24:27.216Z,0
2016-09-27T03:24:52.766Z,0
2016-09-27T03:25:18.335Z,0
2016-09-27T03:25:43.916Z,0
2016-09-27T03:26:09.472Z,0
2016-09-27T03:26:35.056Z,0
2016-09-27T03:27:00.653Z,0
2016-09-27T03:27:26.218Z,0
2016-09-27T03:27:51.778Z,0
2016-09-27T03:28:17.330Z,0
2016-09-27T03:28:42.920Z,0
2016-09-27T03:29:08.481Z,0
2016-09-27T03:29:34.068Z,0
2016-09-27T03:29:59.628Z,0
2016-09-27T03:31:07.958Z,0
2016-09-27T03:31:33.532Z,0
2016-09-27T03:31:59.079Z,0
2016-09-27T03:32:24.647Z,0
2016-09-27T03:32:50.209Z,0
2016-09-27T03:33:15.945Z,0
2016-09-27T03:33:41.511Z,0
2016-09-27T03:34:07.098Z,0
2016-09-27T03:34:32.635Z,0
2016-09-27T03:34:58.207Z,0
2016-09-27T03:35:23.778Z,0
2016-09-27T03:35:49.348Z,0
2016-09-27T03:36:14.917Z,0
2016-09-27T03:36:40.497Z,0
2016-09-27T03:37:06.137Z,0
2016-09-27T03:37:31.698Z,0
2016-09-27T03:37:57.249Z,0
2016-09-27T03:38:22.807Z,0
2016-09-27T03:38:48.362Z,0
2016-09-27T03:39:13.919Z,0
2016-09-27T03:39:39.489Z,0
2016-09-27T03:40:05.050Z,0
2016-09-27T03:40:30.627Z,0
2016-09-27T03:41:38.997Z,0
2016-09-27T03:42:04.549Z,0
2016-09-27T03:42:30.112Z,0
2016-09-27T03:42:55.695Z,0
2016-09-27T03:43:21.262Z,0
2016-09-27T03:43:46.837Z,0
2016-09-27T03:44:12.392Z,0
2016-09-27T03:44:37.962Z,0
2016-09-27T03:45:03.538Z,0
2016-09-27T03:45:29.140Z,0
2016-09-27T03:45:54.704Z,0
2016-09-27T03:46:20.320Z,0
2016-09-27T03:46:45.881Z,0
2016-09-27T03:47:11.439Z,0
2016-09-27T03:47:37.102Z,0
2016-09-27T03:48:02.748Z,0
2016-09-27T03:48:28.318Z,0
2016-09-27T03:48:53.875Z,0
2016-09-27T03:49:19.438Z,0
2016-09-27T03:49:45.012Z,0
2016-09-27T03:50:10.582Z,0
2016-09-27T03:50:36.121Z,0
2016-09-27T03:51:01.686Z,0
2016-09-27T03:51:27.248Z,0
2016-09-27T03:51:52.888Z,0
2016-09-27T03:52:18.446Z,0
2016-09-27T03:52:44.020Z,0
2016-09-27T03:53:09.657Z,0
2016-09-27T03:53:35.217Z,0
2016-09-27T03:54:00.781Z,0
2016-09-27T03:54:26.331Z,0
2016-09-27T03:54:51.890Z,0
2016-09-27T03:55:17.450Z,0
2016-09-27T03:55:43.017Z,0
2016-09-27T03:56:08.584Z,0
2016-09-27T03:56:34.152Z,0
2016-09-27T03:56:59.693Z,0
2016-09-27T03:57:25.270Z,0
2016-09-27T03:57:50.840Z,0
2016-09-27T03:58:16.389Z,0
2016-09-27T03:58:41.964Z,0
2016-09-27T03:59:07.510Z,0
2016-09-27T03:59:33.086Z,0
2016-09-27T03:59:58.703Z,0
2016-09-27T04:00:24.272Z,0
2016-09-27T04:00:49.828Z,0
2016-09-27T04:01:15.395Z,0
2016-09-27T04:01:40.964Z,0
2016-09-27T04:02:06.530Z,0
2016-09-27T04:02:32.106Z,0
2016-09-27T04:02:57.780Z,0
2016-09-27T04:03:23.361Z,0
2016-09-27T04:03:48.930Z,0
2016-09-27T04:04:14.491Z,0
2016-09-27T04:05:23.045Z,0
2016-09-27T04:05:48.608Z,0
2016-09-27T04:06:14.166Z,0
2016-09-27T04:06:39.744Z,0
2016-09-27T04:07:05.310Z,0
2016-09-27T04:07:30.891Z,0
2016-09-27T04:07:56.446Z,0
2016-09-27T04:08:21.992Z,0
2016-09-27T04:08:47.550Z,0
2016-09-27T04:09:13.237Z,0
2016-09-27T04:09:38.869Z,0
2016-09-27T04:10:04.398Z,0
2016-09-27T04:10:29.975Z,0
2016-09-27T04:10:55.536Z,0
2016-09-27T04:11:21.122Z,0
2016-09-27T04:11:46.704Z,0
2016-09-27T04:12:12.253Z,0
2016-09-27T04:12:37.807Z,0
2016-09-27T04:13:03.361Z,0
2016-09-27T04:13:28.916Z,0
2016-09-27T04:13:54.475Z,0
2016-09-27T04:14:20.050Z,0
2016-09-27T04:14:45.601Z,0
2016-09-27T04:15:11.353Z,0
2016-09-27T04:15:36.892Z,0
2016-09-27T04:16:02.456Z,0
2016-09-27T04:16:28.006Z,0
2016-09-27T04:16:53.670Z,0
2016-09-27T04:17:19.228Z,0
2016-09-27T04:17:44.784Z,0
2016-09-27T04:19:08.879Z,0
2016-09-27T04:19:34.441Z,0
2016-09-27T04:20:00.013Z,0
2016-09-27T04:20:25.564Z,0
2016-09-27T04:20:51.130Z,0
2016-09-27T04:21:16.704Z,0
2016-09-27T04:21:42.337Z,0
2016-09-27T04:22:07.892Z,0
2016-09-27T04:22:33.449Z,0
2016-09-27T04:22:59.030Z,0
2016-09-27T04:23:24.566Z,0
2016-09-27T04:23:50.125Z,0
2016-09-27T04:24:15.693Z,0
2016-09-27T04:24:41.248Z,0
2016-09-27T04:25:06.765Z,0
2016-09-27T04:25:32.303Z,0
2016-09-27T04:25:57.871Z,0
2016-09-27T04:26:23.397Z,0
2016-09-27T04:26:48.936Z,0
2016-09-27T04:27:14.501Z,0
2016-09-27T04:27:40.066Z,0
2016-09-27T04:28:05.642Z,0
2016-09-27T04:28:31.205Z,0
2016-09-27T04:28:56.742Z,0
2016-09-27T04:29:22.298Z,0
2016-09-27T04:29:47.842Z,0
2016-09-27T04:30:13.375Z,0
2016-09-27T04:30:38.997Z,0
2016-09-27T04:31:04.522Z,0
2016-09-27T04:31:30.064Z,0
2016-09-27T04:31:55.875Z,0
2016-09-27T04:32:21.427Z,0
2016-09-27T04:32:46.979Z,0
2016-09-27T04:33:12.565Z,0
2016-09-27T04:33:38.102Z,0
2016-09-27T04:34:03.634Z,0
2016-09-27T04:34:29.193Z,0
2016-09-27T04:34:54.794Z,0
2016-09-27T04:35:20.345Z,0
2016-09-27T04:35:45.897Z,0
2016-09-27T04:36:11.441Z,0
2016-09-27T04:36:36.985Z,0
2016-09-27T04:37:02.516Z,0
2016-09-27T04:37:28.078Z,0
2016-09-27T04:37:53.710Z,0
2016-09-27T04:38:19.278Z,0
2016-09-27T04:38:44.810Z,0
2016-09-27T04:39:10.478Z,0
2016-09-27T04:39:36.019Z,0
2016-09-27T04:40:01.563Z,0
2016-09-27T04:40:27.124Z,0
2016-09-27T04:40:52.678Z,0
2016-09-27T04:41:18.242Z,0
2016-09-27T04:41:43.881Z,0
2016-09-27T04:42:09.442Z,0
2016-09-27T04:42:35.002Z,0
2016-09-27T04:43:00.682Z,0
2016-09-27T04:43:26.298Z,0
2016-09-27T04:43:51.873Z,0
2016-09-27T04:44:17.439Z,0
2016-09-27T04:44:43.141Z,0
2016-09-27T04:45:08.700Z,0
2016-09-27T04:45:34.251Z,0
2016-09-27T04:45:59.817Z,0
2016-09-27T04:46:25.373Z,0
2016-09-27T04:46:50.933Z,0
2016-09-27T04:47:16.511Z,0
2016-09-27T04:47:42.066Z,0
2016-09-27T04:48:07.603Z,0
2016-09-27T04:48:33.372Z,0
2016-09-27T04:48:58.959Z,0
2016-09-27T04:49:24.525Z,0
2016-09-27T04:49:50.113Z,0
2016-09-27T04:50:15.686Z,0
2016-09-27T04:50:41.228Z,0
2016-09-27T04:51:06.909Z,0
2016-09-27T04:51:32.457Z,0
2016-09-27T04:51:58.024Z,0
2016-09-27T04:52:23.683Z,0
2016-09-27T04:52:49.307Z,0
2016-09-27T04:53:14.871Z,0
2016-09-27T04:53:40.465Z,0
2016-09-27T04:54:06.050Z,0
2016-09-27T04:54:31.610Z,0
2016-09-27T04:54:57.177Z,0
2016-09-27T04:55:22.772Z,0
2016-09-27T04:55:48.336Z,0
2016-09-27T04:58:05.003Z,0
2016-09-27T04:58:30.649Z,0
2016-09-27T04:58:56.213Z,0
2016-09-27T04:59:21.775Z,0
2016-09-27T04:59:47.333Z,0
2016-09-27T05:00:12.971Z,0
2016-09-27T05:00:38.513Z,0
2016-09-27T05:01:04.072Z,0
2016-09-27T05:01:29.632Z,0
2016-09-27T05:01:55.192Z,0
2016-09-27T05:02:20.763Z,0
2016-09-27T05:02:46.326Z,4
2016-09-27T05:04:04.904Z,0
2016-09-27T05:04:30.522Z,0
2016-09-27T05:04:56.124Z,0
2016-09-27T05:06:09.519Z,0
2016-09-27T05:06:35.055Z,4
2016-09-27T05:07:00.692Z,4
2016-09-27T05:07:26.256Z,4
2016-09-27T05:07:51.803Z,0
2016-09-27T05:08:17.498Z,0
2016-09-27T05:08:43.073Z,0
2016-09-27T05:09:08.622Z,4
2016-09-27T05:09:34.175Z,4
2016-09-27T05:09:59.729Z,4
2016-09-27T05:10:25.349Z,4
2016-09-27T05:10:50.889Z,4
2016-09-27T05:11:16.456Z,4
2016-09-27T05:11:42.020Z,4
2016-09-27T05:12:07.710Z,4
2016-09-27T05:12:33.262Z,8
2016-09-27T05:12:58.819Z,4
2016-09-27T05:13:24.360Z,4
2016-09-27T05:13:49.949Z,4
2016-09-27T05:14:15.509Z,8
2016-09-27T05:14:41.056Z,4
2016-09-27T05:15:06.618Z,8
2016-09-27T05:15:32.202Z,8
2016-09-27T05:15:57.886Z,8
2016-09-27T05:16:23.978Z,8
2016-09-27T05:16:52.467Z,8
2016-09-27T05:17:18.018Z,12
2016-09-27T05:17:43.596Z,8
2016-09-27T05:18:09.286Z,8
2016-09-27T05:18:34.838Z,12
2016-09-27T05:19:00.469Z,8
2016-09-27T05:19:26.049Z,12
2016-09-27T05:19:51.608Z,12
2016-09-27T05:20:17.266Z,16
2016-09-27T05:20:42.889Z,12
2016-09-27T05:21:08.458Z,12
2016-09-27T05:21:34.010Z,16
2016-09-27T05:21:59.595Z,12
2016-09-27T05:22:25.142Z,16
2016-09-27T05:22:50.679Z,16
2016-09-27T05:23:16.245Z,16
2016-09-27T05:23:41.801Z,16
2016-09-27T05:24:07.481Z,20
2016-09-27T05:24:33.079Z,16
2016-09-27T05:24:58.706Z,20
2016-09-27T05:25:24.245Z,20
2016-09-27T05:25:49.848Z,20
2016-09-27T05:26:15.446Z,20
2016-09-27T05:26:41.045Z,24
2016-09-27T05:27:06.671Z,20
2016-09-27T05:27:32.528Z,24
2016-09-27T05:27:58.163Z,24
2016-09-27T05:28:23.729Z,24
2016-09-27T05:28:49.819Z,28
2016-09-27T05:29:15.391Z,24
2016-09-27T05:29:40.942Z,28
2016-09-27T05:30:06.506Z,24
2016-09-27T05:30:32.077Z,28
2016-09-27T05:30:57.636Z,28
2016-09-27T05:31:23.198Z,28
2016-09-27T05:31:48.765Z,32
2016-09-27T05:32:14.319Z,32
2016-09-27T05:33:33.244Z,36
2016-09-27T05:33:58.667Z,32
2016-09-27T05:34:24.264Z,36
2016-09-27T05:34:49.825Z,36
2016-09-27T05:35:15.355Z,40
2016-09-27T05:35:40.922Z,36
2016-09-27T05:36:06.505Z,40
2016-09-27T05:36:32.082Z,40
2016-09-27T05:36:57.615Z,40
2016-09-27T05:37:23.198Z,40
2016-09-27T05:37:48.756Z,40
2016-09-27T05:38:14.295Z,44
2016-09-27T05:38:39.898Z,44
2016-09-27T05:39:05.444Z,48
2016-09-27T05:39:31.015Z,44
2016-09-27T05:39:56.565Z,44
2016-09-27T05:40:22.097Z,48
2016-09-27T05:40:47.657Z,48
2016-09-27T05:41:13.258Z,48
2016-09-27T05:41:38.797Z,48
2016-09-27T05:42:04.444Z,48
2016-09-27T05:42:29.981Z,52
2016-09-27T05:46:21.858Z,1720
2016-09-27T05:46:54.832Z,1816
2016-09-27T05:47:27.869Z,1852
2016-09-27T05:47:54.190Z,1876
2016-09-27T05:48:19.788Z,1904
2016-09-27T05:48:45.305Z,1928
2016-09-27T05:49:10.859Z,1956
2016-09-27T05:49:36.419Z,1984
2016-09-27T05:50:02.091Z,2008
2016-09-27T05:50:27.643Z,2032
2016-09-27T05:50:53.229Z,2056
2016-09-27T05:51:18.805Z,2080
2016-09-27T05:51:44.383Z,2104
2016-09-27T05:52:09.956Z,2124
2016-09-27T05:52:35.521Z,2152
2016-09-27T05:53:01.067Z,2172
2016-09-27T05:53:26.656Z,2200
2016-09-27T05:53:52.208Z,2220
2016-09-27T05:54:17.796Z,2244
2016-09-27T05:54:43.373Z,2264
2016-09-27T05:55:09.049Z,2288
2016-09-27T05:55:34.582Z,2312
2016-09-27T05:56:00.150Z,2332
2016-09-27T05:56:25.691Z,2356
2016-09-27T05:56:51.244Z,2380
2016-09-27T05:57:16.796Z,2404
2016-09-27T05:57:42.407Z,2428
2016-09-27T05:58:07.964Z,2448
2016-09-27T05:58:33.521Z,2472
2016-09-27T05:58:59.083Z,2492
2016-09-27T05:59:24.615Z,2516
2016-09-27T05:59:50.175Z,2536
2016-09-27T06:00:15.732Z,2560
2016-09-27T06:01:20.982Z,2612
2016-09-27T06:02:46.225Z,2680
2016-09-27T06:05:44.962Z,2808
2016-09-27T06:06:10.408Z,2824
2016-09-27T06:06:35.967Z,2844
2016-09-27T06:07:01.574Z,2860
2016-09-27T06:07:27.079Z,2880
2016-09-27T06:07:52.655Z,2900
2016-09-27T06:08:18.202Z,2920
2016-09-27T06:08:43.779Z,2940
2016-09-27T06:09:09.321Z,2956
2016-09-27T06:09:34.884Z,2976
2016-09-27T06:10:00.436Z,2996
2016-09-27T06:10:26.015Z,3012
2016-09-27T06:10:51.565Z,3028
2016-09-27T06:11:17.130Z,3052
2016-09-27T06:11:42.672Z,3068
2016-09-27T06:12:08.423Z,3084
2016-09-27T06:12:34.026Z,3100
2016-09-27T06:12:59.585Z,3120
2016-09-27T06:13:25.171Z,3132
2016-09-27T06:13:50.743Z,3144
2016-09-27T06:14:16.395Z,3160
2016-09-27T06:14:42.114Z,3172
2016-09-27T06:15:07.675Z,3192
2016-09-27T06:15:33.343Z,3204
2016-09-27T06:15:58.955Z,3216
2016-09-27T06:16:24.515Z,3232
2016-09-27T06:16:50.095Z,3244
2016-09-27T06:17:15.695Z,3260
2016-09-27T06:17:41.242Z,3272
2016-09-27T06:18:06.756Z,3284
2016-09-27T06:18:33.077Z,3300
2016-09-27T06:18:58.646Z,3312
2016-09-27T06:19:24.290Z,3332
2016-09-27T06:19:49.813Z,3344
2016-09-27T06:20:15.539Z,3356
2016-09-27T06:20:41.073Z,3372
2016-09-27T06:21:06.722Z,3384
2016-09-27T06:21:32.278Z,3400
2016-09-27T06:21:57.850Z,3412
2016-09-27T06:22:23.434Z,3424
2016-09-27T06:22:49.044Z,3436
2016-09-27T06:23:14.592Z,3448
2016-09-27T06:23:40.172Z,3460
2016-09-27T06:25:53.583Z,3524
2016-09-27T06:28:09.036Z,3588
2016-09-27T06:28:35.427Z,3600
2016-09-27T06:29:01.022Z,3612
2016-09-27T06:29:26.658Z,3624
2016-09-27T06:29:52.152Z,3636
2016-09-27T06:30:17.737Z,3644
2016-09-27T06:30:43.290Z,3656
2016-09-27T06:31:08.867Z,3668
2016-09-27T06:31:34.431Z,3680
2016-09-27T06:32:00.039Z,3692
2016-09-27T06:32:25.656Z,3704
2016-09-27T06:32:52.048Z,3720
2016-09-27T06:33:17.585Z,3728
2016-09-27T06:33:43.149Z,3740
2016-09-27T06:34:08.770Z,3752
2016-09-27T06:34:34.401Z,3764
2016-09-27T06:34:59.940Z,3776
2016-09-27T06:35:25.510Z,3776
2016-09-27T06:35:51.086Z,3788
2016-09-27T06:36:16.645Z,3796
2016-09-27T06:36:42.178Z,3804
2016-09-27T06:37:07.732Z,3816
2016-09-27T06:37:33.337Z,3828
2016-09-27T06:37:58.916Z,3836
2016-09-27T06:38:24.478Z,3848
2016-09-27T06:38:50.081Z,3860
2016-09-27T06:39:15.654Z,3872
2016-09-27T06:39:41.240Z,3884
2016-09-27T06:40:06.993Z,3892
2016-09-27T06:40:32.573Z,3904
2016-09-27T06:40:58.168Z,3908
2016-09-27T06:41:23.731Z,3912
2016-09-27T06:41:49.419Z,3916
2016-09-27T06:42:15.021Z,3924
2016-09-27T06:42:40.574Z,3928
2016-09-27T06:43:06.183Z,3932
2016-09-27T06:43:31.779Z,3932
2016-09-27T06:43:57.367Z,3936
2016-09-27T06:44:22.918Z,3948
2016-09-27T06:44:48.462Z,3956
2016-09-27T06:45:14.080Z,3964
2016-09-27T06:45:39.629Z,3968
2016-09-27T06:46:05.194Z,3972
2016-09-27T06:46:30.767Z,3980
2016-09-27T06:46:56.371Z,3992
2016-09-27T06:47:21.977Z,4000
2016-09-27T06:47:47.638Z,4008
2016-09-27T06:48:13.171Z,4016
2016-09-27T06:48:38.843Z,4020
2016-09-27T06:49:04.379Z,4028
2016-09-27T06:49:29.953Z,4040
2016-09-27T06:49:55.587Z,4052
2016-09-27T06:50:21.157Z,4060
2016-09-27T06:50:46.727Z,4060
2016-09-27T06:51:12.373Z,4072
2016-09-27T06:51:37.914Z,4080
2016-09-27T06:52:03.483Z,4092
2016-09-27T06:52:29.019Z,4096
2016-09-27T06:52:54.675Z,4112
2016-09-27T06:53:21.068Z,4116
2016-09-27T06:53:46.627Z,4120
2016-09-27T06:54:12.202Z,4124
2016-09-27T06:54:37.777Z,4136
2016-09-27T06:55:03.349Z,4144
2016-09-27T06:55:28.893Z,4148
2016-09-27T06:55:54.426Z,4152
2016-09-27T06:56:20.123Z,4164
2016-09-27T06:56:45.671Z,4156
2016-09-27T06:57:11.224Z,4144
2016-09-27T06:57:36.787Z,4148
2016-09-27T06:58:02.350Z,4156
2016-09-27T06:58:27.980Z,4164
2016-09-27T06:58:53.548Z,4172
2016-09-27T06:59:19.249Z,4176
2016-09-27T06:59:44.885Z,4172
2016-09-27T07:00:10.450Z,4176
2016-09-27T07:00:36.011Z,4188
2016-09-27T07:01:01.578Z,4196
2016-09-27T07:01:27.155Z,4196
2016-09-27T07:01:52.707Z,4200
2016-09-27T07:02:18.288Z,4216
2016-09-27T07:02:44.443Z,4224
2016-09-27T07:03:10.012Z,4228
2016-09-27T07:03:35.556Z,4232
2016-09-27T07:04:01.116Z,4244
2016-09-27T07:04:26.660Z,4244
2016-09-27T07:04:52.345Z,4248
2016-09-27T07:06:08.269Z,4268
2016-09-27T07:06:33.908Z,4272
2016-09-27T07:06:59.418Z,4276
2016-09-27T07:08:07.679Z,4292
2016-09-27T07:08:33.272Z,4296
2016-09-27T07:08:58.822Z,4300
2016-09-27T07:09:26.272Z,4312
2016-09-27T07:09:52.324Z,4316
2016-09-27T07:10:17.870Z,4324
2016-09-27T07:10:43.453Z,4328
2016-09-27T07:11:09.075Z,4336
2016-09-27T07:11:34.665Z,4344
2016-09-27T07:12:00.289Z,4348
2016-09-27T07:12:25.814Z,4360
2016-09-27T07:12:51.474Z,4368
2016-09-27T07:13:17.046Z,4376
2016-09-27T07:13:42.560Z,4384
2016-09-27T07:14:08.102Z,4388
2016-09-27T07:15:11.414Z,4412
2016-09-27T07:15:38.016Z,4416
2016-09-27T07:16:43.320Z,4896
2016-09-27T07:17:09.645Z,4880
2016-09-27T07:17:35.312Z,4528
2016-09-27T07:18:00.730Z,3052
2016-09-27T07:18:26.291Z,3060
2016-09-27T07:19:21.017Z,3092
2016-09-27T07:19:46.342Z,3056
2016-09-27T07:20:11.923Z,3076
2016-09-27T07:20:37.441Z,3096
2016-09-27T07:21:03.050Z,3104
2016-09-27T07:21:28.646Z,3112
2016-09-27T07:21:54.175Z,3132
2016-09-27T07:22:19.742Z,3136
2016-09-27T07:22:45.305Z,3144
2016-09-27T07:23:10.870Z,3148
2016-09-27T07:23:36.418Z,3152
2016-09-27T07:24:01.968Z,3160
2016-09-27T07:25:32.223Z,3180
2016-09-27T07:26:03.794Z,3188
2016-09-27T07:26:35.403Z,3200
2016-09-27T07:27:49.543Z,3220
2016-09-27T07:28:17.998Z,3224
2016-09-27T07:28:44.803Z,3232
2016-09-27T07:30:11.599Z,3248
2016-09-27T07:34:20.290Z,3288
2016-09-27T07:34:45.854Z,3292
2016-09-27T07:35:11.370Z,3296
2016-09-27T07:38:14.157Z,3344
2016-09-27T07:39:30.761Z,3368
2016-09-27T07:40:59.802Z,3396
2016-09-27T07:41:25.344Z,3408
2016-09-27T07:41:53.809Z,3416
2016-09-27T07:44:03.883Z,3464
2016-09-27T07:44:35.686Z,3480
2016-09-27T07:45:04.289Z,3492
2016-09-27T07:45:29.863Z,3504
2016-09-27T07:45:55.437Z,3516
2016-09-27T07:46:21.113Z,3532
2016-09-27T07:47:52.292Z,3564
2016-09-27T07:48:23.876Z,3572
2016-09-27T07:48:55.716Z,3588
2016-09-27T07:50:29.268Z,3616
2016-09-27T07:52:02.813Z,3648
2016-09-27T07:55:16.667Z,3708
2016-09-27T07:55:43.897Z,3716
2016-09-27T07:56:15.365Z,3728
2016-09-27T07:59:02.192Z,3772
2016-09-27T08:04:32.104Z,3876
2016-09-27T08:07:27.988Z,3912
2016-09-27T08:07:54.350Z,3916
2016-09-27T08:10:19.360Z,3960
2016-09-27T08:10:51.382Z,3972
2016-09-27T08:13:22.322Z,4040
2016-09-27T08:17:05.808Z,4064
2016-09-27T08:19:54.609Z,4088
2016-09-27T08:21:24.172Z,4100
2016-09-27T08:21:57.808Z,4108
2016-09-27T08:22:31.791Z,4116
2016-09-27T08:23:05.335Z,4120
2016-09-27T08:23:38.957Z,4120
2016-09-27T08:24:12.899Z,4124
2016-09-27T08:24:46.025Z,4128
2016-09-27T08:25:19.593Z,4128
2016-09-27T08:25:53.114Z,4140
2016-09-27T08:27:09.858Z,4160
2016-09-27T08:27:42.902Z,4168
2016-09-27T08:28:17.032Z,4176
2016-09-27T08:28:50.360Z,4192
2016-09-27T08:29:23.799Z,4192
2016-09-27T08:30:40.153Z,4184
2016-09-27T08:31:13.562Z,4192
2016-09-27T08:31:46.878Z,4204
2016-09-27T08:32:20.197Z,4224
2016-09-27T08:32:53.623Z,4244
2016-09-27T08:33:27.318Z,4256
2016-09-27T08:34:00.645Z,4260
2016-09-27T08:34:34.064Z,4264
2016-09-27T08:35:07.504Z,4264
2016-09-27T08:35:40.645Z,4288
2016-09-27T08:36:56.805Z,4340
2016-09-27T08:38:12.689Z,4396
2016-09-27T08:38:45.892Z,4416
2016-09-27T08:39:19.126Z,4436
2016-09-27T08:39:52.026Z,4456
2016-09-27T08:40:25.074Z,4484
2016-09-27T08:40:58.551Z,4500
2016-09-27T08:41:31.684Z,4524
2016-09-27T08:42:04.764Z,4536
2016-09-27T08:42:38.101Z,4556
2016-09-27T08:43:11.306Z,4576
2016-09-27T08:43:44.533Z,4576
2016-09-27T08:44:17.771Z,4576
2016-09-27T08:44:51.058Z,4592
2016-09-27T08:46:07.159Z,4560
2016-09-27T08:46:40.722Z,4584
2016-09-27T08:47:13.912Z,4624
2016-09-27T08:47:47.174Z,4636
2016-09-27T08:48:20.496Z,4644
2016-09-27T08:48:53.878Z,4648
2016-09-27T08:49:27.220Z,4676
2016-09-27T08:50:00.407Z,4700
2016-09-27T08:52:32.774Z,4732
2016-09-27T08:53:48.958Z,4756
2016-09-27T08:54:22.363Z,4780
2016-09-27T08:55:58.097Z,4812
2016-09-27T08:57:10.228Z,4872
2016-09-27T08:59:15.881Z,4948
2016-09-27T08:59:49.567Z,4972
2016-09-27T09:00:23.062Z,4996
2016-09-27T09:00:56.595Z,5032
2016-09-27T09:01:30.091Z,5020
2016-09-27T09:02:46.213Z,5052
2016-09-27T09:03:19.570Z,5064
2016-09-27T09:04:55.412Z,5056
2016-09-27T09:06:05.591Z,5140
2016-09-27T09:07:35.831Z,5184
2016-09-27T09:09:05.030Z,5208
2016-09-27T09:10:20.838Z,5244
2016-09-27T09:11:43.234Z,5280
2016-09-27T09:14:03.051Z,5360
2016-09-27T09:14:35.085Z,5388
2016-09-27T09:15:03.640Z,5400
2016-09-27T09:15:37.429Z,5444
2016-09-27T09:17:15.368Z,5556
2016-09-27T09:17:48.437Z,5596
2016-09-27T09:18:21.728Z,5628
2016-09-27T09:22:05.925Z,5936
2016-09-27T09:22:38.906Z,5964
2016-09-27T09:26:30.834Z,18208
2016-09-27T09:27:04.066Z,35936
2016-09-27T09:28:26.270Z,43136
2016-09-27T09:31:56.588Z,45824
2016-09-27T09:32:29.281Z,50240
2016-09-27T09:33:01.942Z,51264
2016-09-27T09:33:34.633Z,43424
2016-09-27T09:34:07.031Z,52928
2016-09-27T09:40:55.658Z,62208
2016-09-27T09:44:55.974Z,55392
2016-09-27T09:46:04.571Z,57152
2016-09-27T09:49:11.842Z,63968
2016-09-27T09:49:37.585Z,67648
2016-09-27T09:50:03.065Z,65376
2016-09-27T09:51:30.500Z,62496
2016-09-27T09:52:01.069Z,63968
2016-09-27T09:52:26.678Z,65632
2016-09-27T09:52:53.928Z,67584
2016-09-27T09:53:22.021Z,67488
2016-09-27T09:53:49.568Z,67712
2016-09-27T09:54:57.873Z,71072
2016-09-27T09:57:52.085Z,76768
2016-09-27T09:58:18.351Z,78176
2016-09-27T09:58:43.911Z,78208
2016-09-27T09:59:09.587Z,78208
2016-09-27T09:59:35.140Z,78464
2016-09-27T10:00:00.698Z,78304
2016-09-27T10:00:26.256Z,76960
2016-09-27T10:00:51.919Z,75968
2016-09-27T10:01:17.498Z,65952
2016-09-27T10:01:43.068Z,66720
2016-09-27T10:02:08.717Z,69760
2016-09-27T10:02:34.354Z,70144
2016-09-27T10:02:59.883Z,66112
2016-09-27T10:03:25.537Z,73568
2016-09-27T10:03:56.055Z,65504
2016-09-27T10:04:21.619Z,78496
2016-09-27T10:04:47.170Z,68768
2016-09-27T10:05:12.716Z,69632
2016-09-27T10:07:20.382Z,79744
2016-09-27T10:07:45.929Z,75872
2016-09-27T10:13:15.541Z,77824
2016-09-27T10:15:34.873Z,78816
2016-09-27T10:16:01.644Z,78112
2016-09-27T10:16:27.199Z,77184
2016-09-27T10:16:52.776Z,78464
2016-09-27T10:17:18.355Z,78976
2016-09-27T10:17:43.915Z,77760
2016-09-27T10:18:09.453Z,78560
2016-09-27T10:18:35.043Z,80320
2016-09-27T10:20:27.664Z,77696
2016-09-27T10:20:53.223Z,78720
2016-09-27T10:23:47.507Z,77120
2016-09-27T10:24:51.558Z,75232
2016-09-27T10:25:17.107Z,74272
2016-09-27T10:25:42.658Z,74528
2016-09-27T10:26:08.240Z,75936
2016-09-27T10:26:34.825Z,75616
2016-09-27T10:27:48.294Z,72704
2016-09-27T10:28:13.905Z,73024
2016-09-27T10:28:39.466Z,73280
2016-09-27T10:31:28.410Z,73664
2016-09-27T10:33:19.467Z,75200
2016-09-27T10:35:16.287Z,73696
2016-09-27T10:36:23.352Z,66304
2016-09-27T10:36:48.722Z,70080
2016-09-27T10:37:14.288Z,59264
2016-09-27T10:37:43.626Z,20800
2016-09-27T10:42:57.836Z,73632
2016-09-27T10:49:03.439Z,69728
2016-09-27T10:49:34.311Z,70112
2016-09-27T10:52:38.891Z,71488
2016-09-27T10:55:30.740Z,72416
2016-09-27T10:57:46.290Z,74592
2016-09-27T11:01:08.262Z,75968
2016-09-27T11:03:10.851Z,75104
2016-09-27T11:04:24.728Z,75424
2016-09-27T11:05:50.421Z,74464
2016-09-27T11:07:53.284Z,71616
2016-09-27T11:12:15.312Z,75328
2016-09-27T11:12:46.354Z,75776
2016-09-27T11:13:17.253Z,74816
2016-09-27T11:13:48.636Z,76384
2016-09-27T11:15:57.821Z,73280
2016-09-27T11:16:28.197Z,72416
2016-09-27T11:17:35.921Z,72224
2016-09-27T11:18:44.236Z,71584
2016-09-27T11:19:14.648Z,70848
2016-09-27T11:20:36.895Z,72032
2016-09-27T11:21:02.449Z,74016
2016-09-27T11:21:27.997Z,75072
2016-09-27T11:21:53.613Z,74688
2016-09-27T11:22:19.133Z,74080
2016-09-27T11:22:44.684Z,72992
2016-09-27T11:23:10.245Z,72416
2016-09-27T11:23:35.804Z,72960
2016-09-27T11:24:01.353Z,72768
2016-09-27T11:24:26.913Z,72864
2016-09-27T11:24:52.577Z,72896
2016-09-27T11:25:18.185Z,73088
2016-09-27T11:25:43.773Z,72960
2016-09-27T11:27:47.174Z,70784
2016-09-27T11:31:15.965Z,62912
2016-09-27T11:34:25.742Z,71904
2016-09-27T11:36:29.281Z,73280
2016-09-27T11:37:00.347Z,72384
2016-09-27T11:37:32.810Z,72448
2016-09-27T11:39:59.278Z,72064
2016-09-27T11:41:55.909Z,72128
2016-09-27T11:43:53.006Z,74272
2016-09-27T11:45:06.915Z,72160
2016-09-27T11:46:20.398Z,71808
2016-09-27T11:47:28.639Z,69952
2016-09-27T11:51:57.460Z,68640
2016-09-27T11:55:50.760Z,67296
2016-09-27T11:58:05.691Z,69600
2016-09-27T11:58:36.572Z,69824
2016-09-27T12:00:03.339Z,69312
2016-09-27T12:01:11.702Z,69792
2016-09-27T12:03:33.478Z,68992
2016-09-27T12:04:04.667Z,69056
2016-09-27T12:04:36.062Z,64672
2016-09-27T12:07:28.128Z,64288
2016-09-27T12:07:59.179Z,63936
2016-09-27T12:10:57.203Z,61184
2016-09-27T12:11:27.856Z,62656
2016-09-27T12:12:31.593Z,67968
2016-09-27T12:12:57.166Z,69664
2016-09-27T12:13:22.719Z,68928
2016-09-27T12:13:48.283Z,68992
2016-09-27T12:14:13.831Z,68384
2016-09-27T12:14:41.337Z,68800
2016-09-27T12:15:06.867Z,69696
2016-09-27T12:18:14.158Z,64832
2016-09-27T12:20:18.866Z,60480
2016-09-27T12:20:49.767Z,60128
2016-09-27T12:22:03.657Z,59872
2016-09-27T12:22:34.584Z,61376
2016-09-27T12:24:03.234Z,60640
2016-09-27T12:24:28.814Z,60288
2016-09-27T12:24:54.440Z,60480
2016-09-27T12:25:19.989Z,60672
2016-09-27T12:25:45.534Z,60064
2016-09-27T12:26:11.091Z,59744
2016-09-27T12:26:36.632Z,59808
2016-09-27T12:27:02.208Z,48864
2016-09-27T12:27:28.720Z,59136
2016-09-27T12:27:54.301Z,60160
2016-09-27T12:28:19.904Z,60992
2016-09-27T12:28:46.373Z,61312
2016-09-27T12:29:12.077Z,61664
2016-09-27T12:29:37.651Z,62048
2016-09-27T12:30:03.234Z,61984
2016-09-27T12:30:28.805Z,61856
2016-09-27T12:30:56.614Z,60480
2016-09-27T12:34:30.541Z,52192
2016-09-27T12:35:44.168Z,51552